createdAt,value
2023-03-06T00:01:05.847Z,19.25
2023-03-06T00:03:33.532Z,19.50
2023-03-06T00:06:01.328Z,19.58
2023-03-06T00:08:29.215Z,21.42
2023-03-06T00:10:57.004Z,17.15
2023-03-06T00:13:24.944Z,20.17
2023-03-06T00:15:51.753Z,21.77
2023-03-06T00:18:18.531Z,19.20
2023-03-06T00:20:45.731Z,18.38
2023-03-06T00:23:12.891Z,21.15
2023-03-06T00:25:44.301Z,21.50
2023-03-06T00:28:15.662Z,20.10
2023-03-06T00:30:42.854Z,23.17
2023-03-06T00:33:09.916Z,20.98
2023-03-06T00:35:39.562Z,19.15
2023-03-06T00:38:06.676Z,22.58
2023-03-06T00:40:33.526Z,21.33
2023-03-06T00:43:00.302Z,23.40
2023-03-06T00:45:27.116Z,23.67
2023-03-06T00:47:53.825Z,23.08
2023-03-06T00:50:20.547Z,25.33
2023-03-06T00:52:47.651Z,27.90
2023-03-06T00:55:14.558Z,21.48
2023-03-06T00:57:41.364Z,21.08
2023-03-06T01:00:09.964Z,21.88
2023-03-06T01:02:36.677Z,21.48
2023-03-06T01:05:03.724Z,25.83
2023-03-06T01:07:33.848Z,22.25
2023-03-06T01:10:00.828Z,22.05
2023-03-06T01:12:27.694Z,22.98
2023-03-06T01:14:54.426Z,29.83
2023-03-06T01:17:21.146Z,22.77
2023-03-06T01:19:47.852Z,23.13
2023-03-06T01:22:14.662Z,22.88
2023-03-06T01:24:41.352Z,20.98
2023-03-06T01:27:08.107Z,23.17
2023-03-06T01:29:34.823Z,24.67
2023-03-06T01:32:01.565Z,28.95
2023-03-06T01:34:28.586Z,27.83
2023-03-06T01:36:55.355Z,29.73
2023-03-06T01:39:22.104Z,30.02
2023-03-06T01:41:48.848Z,29.17
2023-03-06T01:44:15.577Z,29.45
2023-03-06T01:46:46.537Z,29.30
2023-03-06T01:49:20.745Z,29.40
2023-03-06T01:51:53.914Z,34.13
2023-03-06T01:54:40.654Z,33.22
2023-03-06T01:57:15.264Z,25.60
2023-03-06T01:59:44.084Z,30.85
2023-03-06T02:02:12.729Z,34.45
2023-03-06T02:04:42.235Z,27.27
2023-03-06T02:07:09.867Z,24.85
2023-03-06T02:09:38.891Z,29.83
2023-03-06T02:12:17.246Z,30.98
2023-03-06T02:14:43.996Z,28.60
2023-03-06T02:17:14.188Z,30.70
2023-03-06T02:20:13.090Z,30.92
2023-03-06T02:23:05.182Z,35.40
2023-03-06T02:25:39.064Z,35.85
2023-03-06T02:28:12.747Z,37.67
2023-03-06T02:30:41.177Z,36.10
2023-03-06T02:33:10.922Z,34.58
2023-03-06T02:35:39.475Z,31.98
2023-03-06T02:38:12.110Z,32.90
2023-03-06T02:40:39.396Z,36.45
2023-03-06T02:43:06.159Z,28.92
2023-03-06T02:45:44.294Z,32.50
2023-03-06T02:48:13.040Z,32.63
2023-03-06T02:50:41.446Z,31.40
2023-03-06T02:53:09.207Z,33.70
2023-03-06T02:55:36.328Z,26.33
2023-03-06T02:58:03.870Z,28.58
2023-03-06T03:00:32.717Z,29.10
2023-03-06T03:02:59.619Z,28.05
2023-03-06T03:05:26.577Z,31.67
2023-03-06T03:07:53.372Z,30.58
2023-03-06T03:10:20.474Z,35.28
2023-03-06T03:12:47.265Z,36.75
2023-03-06T03:15:14.149Z,38.17
2023-03-06T03:17:41.812Z,38.33
2023-03-06T03:20:13.501Z,35.38
2023-03-06T03:22:40.325Z,41.22
2023-03-06T03:25:08.035Z,37.80
2023-03-06T03:27:34.756Z,38.00
2023-03-06T03:30:01.555Z,43.95
2023-03-06T03:32:28.379Z,39.80
2023-03-06T03:34:56.263Z,39.00
2023-03-06T03:37:23.156Z,43.67
2023-03-06T03:39:49.914Z,40.72
2023-03-06T03:42:16.618Z,37.00
2023-03-06T03:44:43.362Z,43.47
2023-03-06T03:47:10.194Z,42.88
2023-03-06T03:49:37.136Z,44.47
2023-03-06T03:52:04.140Z,38.10
2023-03-06T03:54:30.869Z,38.17
2023-03-06T03:56:57.575Z,40.58
2023-03-06T03:59:24.482Z,36.45
2023-03-06T04:01:52.108Z,41.70
2023-03-06T04:04:18.862Z,37.17
2023-03-06T04:06:45.627Z,40.80
2023-03-06T04:09:12.366Z,34.60
2023-03-06T04:11:39.094Z,35.03
2023-03-06T04:14:08.122Z,37.90
2023-03-06T04:16:34.970Z,36.58
2023-03-06T04:19:01.736Z,40.38
2023-03-06T04:21:28.722Z,39.88
2023-03-06T04:23:55.490Z,38.88
2023-03-06T04:26:22.247Z,36.35
2023-03-06T04:28:49.005Z,35.90
2023-03-06T04:31:15.763Z,36.42
2023-03-06T04:33:42.505Z,35.15
2023-03-06T04:36:26.353Z,31.98
2023-03-06T04:38:53.167Z,31.60
2023-03-06T04:41:20.034Z,35.35
2023-03-06T04:43:46.783Z,31.20
2023-03-06T04:46:13.487Z,29.33
2023-03-06T04:48:40.501Z,31.13
2023-03-06T04:51:11.263Z,27.17
2023-03-06T04:53:40.839Z,25.60
2023-03-06T04:56:08.035Z,24.02
2023-03-06T04:58:34.742Z,26.85
2023-03-06T05:01:01.574Z,29.88
2023-03-06T05:03:28.353Z,28.50
2023-03-06T05:05:55.088Z,25.95
2023-03-06T05:08:23.635Z,27.13
2023-03-06T05:11:00.229Z,32.00
2023-03-06T05:13:27.562Z,33.03
2023-03-06T05:15:54.744Z,32.30
2023-03-06T05:18:21.841Z,28.88
2023-03-06T05:20:48.554Z,32.05
2023-03-06T05:23:15.307Z,29.67
2023-03-06T05:25:42.343Z,34.70
2023-03-06T05:28:09.067Z,27.73
2023-03-06T05:30:36.230Z,31.90
2023-03-06T05:33:03.016Z,30.17
2023-03-06T05:35:29.811Z,29.48
2023-03-06T05:37:56.782Z,28.02
2023-03-06T06:02:48.189Z,39.90
2023-03-06T06:05:15.076Z,31.30
2023-03-06T06:07:42.447Z,35.03
2023-03-06T06:10:11.135Z,34.13
2023-03-06T06:12:37.881Z,33.83
2023-03-06T06:15:06.427Z,36.90
2023-03-06T06:17:33.213Z,36.15
2023-03-06T06:20:00.037Z,40.92
2023-03-06T06:22:26.723Z,37.47
2023-03-06T06:24:53.420Z,36.60
2023-03-06T06:27:21.180Z,40.97
2023-03-06T06:29:52.244Z,42.13
2023-03-06T06:32:19.376Z,46.30
2023-03-06T06:34:46.137Z,46.65
2023-03-06T06:37:12.839Z,61.80
2023-03-06T06:39:40.109Z,60.85
2023-03-06T06:42:28.941Z,67.63
2023-03-06T06:44:55.169Z,63.50
2023-03-06T06:47:24.407Z,63.20
2023-03-06T06:49:53.679Z,83.43
2023-03-06T06:52:21.109Z,67.15
2023-03-06T06:54:47.964Z,64.45
2023-03-06T06:57:15.638Z,62.15
2023-03-06T06:59:42.649Z,60.15
2023-03-06T07:02:13.945Z,61.63
2023-03-06T07:04:52.290Z,62.30
2023-03-06T07:07:28.716Z,63.75
2023-03-06T07:09:55.950Z,53.47
2023-03-06T07:12:22.805Z,54.17
2023-03-06T07:14:49.555Z,73.10
2023-03-06T07:17:16.316Z,63.65
2023-03-06T07:19:43.029Z,54.35
2023-03-06T07:22:10.070Z,57.80
2023-03-06T07:24:36.829Z,57.22
2023-03-06T07:27:03.611Z,53.13
2023-03-06T07:29:32.732Z,59.05
2023-03-06T07:31:59.532Z,54.15
2023-03-06T07:34:26.281Z,55.00
2023-03-06T07:36:52.999Z,55.72
2023-03-06T07:39:20.828Z,53.22
2023-03-06T07:41:47.532Z,53.35
2023-03-06T07:44:14.251Z,57.40
2023-03-06T07:46:41.212Z,51.33
2023-03-06T07:49:07.968Z,51.03
2023-03-06T07:51:34.675Z,56.67
2023-03-06T07:54:01.387Z,55.13
2023-03-06T07:56:29.229Z,52.75
2023-03-06T07:58:57.041Z,54.03
2023-03-06T08:01:24.109Z,54.00
2023-03-06T08:03:51.464Z,59.03
2023-03-06T08:06:24.250Z,56.45
2023-03-06T08:08:53.938Z,51.65
2023-03-06T08:11:24.105Z,53.88
2023-03-06T08:13:52.823Z,55.42
2023-03-06T08:16:26.593Z,56.00
2023-03-06T08:18:53.836Z,54.90
2023-03-06T08:21:24.180Z,55.25
2023-03-06T08:23:51.422Z,60.65
2023-03-06T08:26:21.798Z,58.95
2023-03-06T08:28:50.968Z,52.15
2023-03-06T08:31:38.221Z,53.80
2023-03-06T08:34:15.469Z,56.80
2023-03-06T08:36:42.317Z,48.70
2023-03-06T08:39:09.264Z,54.58
2023-03-06T08:41:37.319Z,47.53
2023-03-06T08:44:05.447Z,56.13
2023-03-06T08:46:34.114Z,51.97
2023-03-06T08:49:01.124Z,47.85
2023-03-06T08:51:28.891Z,48.10
2023-03-06T08:53:57.343Z,44.85
2023-03-06T08:56:31.287Z,43.65
2023-03-06T08:59:00.897Z,45.75
2023-03-06T09:01:37.567Z,45.47
2023-03-06T09:04:09.181Z,47.58
2023-03-06T09:06:41.173Z,44.35
2023-03-06T09:09:08.689Z,49.67
2023-03-06T09:11:36.300Z,51.78
2023-03-06T09:14:03.759Z,46.63
2023-03-06T09:16:30.567Z,47.45
2023-03-06T09:18:58.611Z,46.35
2023-03-06T09:21:28.502Z,52.60
2023-03-06T09:23:55.343Z,45.63
2023-03-06T09:26:27.944Z,49.47
2023-03-06T09:28:59.705Z,48.65
2023-03-06T09:31:26.418Z,48.25
2023-03-06T09:33:53.118Z,44.83
2023-03-06T09:36:22.265Z,44.40
2023-03-06T09:38:49.736Z,47.72
2023-03-06T09:41:26.381Z,47.45
2023-03-06T09:44:04.705Z,42.33
2023-03-06T09:47:07.874Z,42.83
2023-03-06T09:49:53.150Z,42.78
2023-03-06T09:52:46.162Z,46.13
2023-03-06T09:55:19.160Z,47.35
2023-03-06T09:58:07.157Z,40.42
2023-03-06T10:01:05.738Z,42.95
2023-03-06T10:04:02.901Z,44.33
2023-03-06T10:06:49.417Z,39.85
2023-03-06T10:09:27.330Z,40.17
2023-03-06T10:12:01.203Z,44.30
2023-03-06T10:14:53.884Z,43.88
2023-03-06T10:17:26.153Z,41.13
2023-03-06T10:19:52.962Z,41.28
2023-03-06T10:22:28.126Z,41.50
2023-03-06T10:25:04.886Z,40.47
2023-03-06T10:27:48.360Z,42.30
2023-03-06T10:30:15.207Z,40.25
2023-03-06T10:33:07.425Z,43.97
2023-03-06T10:35:55.643Z,45.08
2023-03-06T10:38:30.831Z,43.28
2023-03-06T10:41:11.510Z,45.13
2023-03-06T10:44:05.674Z,40.15
2023-03-06T10:46:45.811Z,42.50
2023-03-06T10:49:33.548Z,46.05
2023-03-06T10:52:22.155Z,40.70
2023-03-06T10:54:49.239Z,46.97
2023-03-06T10:57:31.760Z,41.80
2023-03-06T11:00:04.556Z,43.08
2023-03-06T11:02:38.396Z,43.95
2023-03-06T11:05:10.605Z,46.88
2023-03-06T11:10:20.662Z,37.78
2023-03-06T11:13:04.579Z,36.03
2023-03-06T11:15:31.942Z,37.88
2023-03-06T11:18:04.293Z,33.83
2023-03-06T11:20:54.256Z,33.03
2023-03-06T11:23:47.091Z,36.08
2023-03-06T11:26:16.559Z,32.53
2023-03-06T11:29:01.401Z,33.47
2023-03-06T11:31:39.581Z,32.35
2023-03-06T11:34:27.291Z,31.70
2023-03-06T11:37:16.555Z,35.03
2023-03-06T11:40:11.326Z,33.55
2023-03-06T11:42:51.584Z,39.75
2023-03-06T11:45:46.641Z,38.55
2023-03-06T11:48:19.272Z,34.33
2023-03-06T11:50:59.449Z,42.92
2023-03-06T11:53:44.616Z,30.02
2023-03-06T11:56:19.568Z,31.75
2023-03-06T11:58:52.867Z,32.80
2023-03-06T12:01:33.600Z,32.65
2023-03-06T12:04:15.683Z,31.42
2023-03-06T12:06:52.814Z,32.42
2023-03-06T12:09:29.399Z,31.92
2023-03-06T12:12:08.813Z,34.50
2023-03-06T12:15:00.535Z,31.13
2023-03-06T12:17:56.096Z,28.90
2023-03-06T12:20:40.597Z,32.00
2023-03-06T12:23:44.766Z,31.50
2023-03-06T12:27:00.709Z,33.35
2023-03-06T12:30:04.716Z,32.22
2023-03-06T12:33:16.572Z,30.20
2023-03-06T12:36:04.411Z,34.33
2023-03-06T12:38:53.543Z,34.35
2023-03-06T12:41:41.605Z,33.30
2023-03-06T12:44:30.888Z,34.72
2023-03-06T12:47:03.652Z,31.27
2023-03-06T12:49:38.439Z,37.35
2023-03-06T12:52:08.220Z,32.70
2023-03-06T12:54:40.941Z,27.75
2023-03-06T12:57:09.298Z,29.15
2023-03-06T12:59:47.745Z,26.50
2023-03-06T13:02:51.961Z,28.55
2023-03-06T13:05:36.885Z,26.45
2023-03-06T13:08:23.091Z,26.58
2023-03-06T13:11:30.712Z,28.95
2023-03-06T13:13:57.567Z,30.00
2023-03-06T13:16:34.905Z,36.95
2023-03-06T13:19:11.562Z,32.60
2023-03-06T13:21:47.566Z,38.17
2023-03-06T13:24:22.306Z,33.75
2023-03-06T13:26:54.713Z,31.23
2023-03-06T13:29:36.746Z,39.83
2023-03-06T13:34:39.262Z,45.53
2023-03-06T13:37:23.003Z,37.80
2023-03-06T13:39:55.205Z,38.45
2023-03-06T13:45:27.366Z,31.30
2023-03-06T13:50:46.400Z,36.38
2023-03-06T13:53:42.002Z,35.28
2023-03-06T13:56:33.468Z,34.35
2023-03-06T13:59:52.226Z,31.88
2023-03-06T14:03:03.520Z,31.60
2023-03-06T14:05:46.424Z,31.85
2023-03-06T14:08:28.156Z,30.58
2023-03-06T14:11:03.966Z,30.35
2023-03-06T14:13:47.467Z,28.42
2023-03-06T14:16:23.608Z,30.90
2023-03-06T14:18:54.078Z,29.45
2023-03-06T14:21:31.909Z,29.80
2023-03-06T14:24:01.995Z,28.85
2023-03-06T14:26:43.456Z,27.15
2023-03-06T14:29:26.644Z,28.05
2023-03-06T14:32:01.675Z,28.92
2023-03-06T14:34:30.440Z,28.80
2023-03-06T14:37:02.435Z,28.48
2023-03-06T14:39:37.582Z,27.05
2023-03-06T14:42:24.666Z,28.50
2023-03-06T14:45:19.417Z,26.98
2023-03-06T14:47:53.738Z,25.67
2023-03-06T14:50:29.303Z,25.55
2023-03-06T14:53:10.491Z,22.17
2023-03-06T14:55:37.327Z,25.10
2023-03-06T14:58:44.966Z,25.10
2023-03-06T15:01:15.963Z,24.15
2023-03-06T15:03:53.222Z,27.92
2023-03-06T15:06:29.894Z,27.52
2023-03-06T15:09:13.815Z,25.45
2023-03-06T15:12:08.370Z,22.80
2023-03-06T15:14:39.302Z,24.88
2023-03-06T15:17:18.238Z,25.63
2023-03-06T15:19:48.424Z,24.15
2023-03-06T15:22:29.124Z,21.98
2023-03-06T15:25:29.867Z,25.50
2023-03-06T15:28:25.735Z,24.00
2023-03-06T15:31:08.644Z,20.70
2023-03-06T15:33:35.539Z,21.90
2023-03-06T15:36:27.471Z,23.58
2023-03-06T15:38:56.291Z,21.88
2023-03-06T15:41:36.778Z,22.45
2023-03-06T15:44:13.074Z,26.23
2023-03-06T15:46:39.812Z,22.52
2023-03-06T15:49:14.944Z,23.15
2023-03-06T15:51:41.645Z,31.15
2023-03-06T15:54:12.408Z,23.40
2023-03-06T15:56:42.609Z,21.40
2023-03-06T15:59:26.141Z,29.67
2023-03-06T16:01:53.756Z,23.80
2023-03-06T16:04:20.618Z,21.00
2023-03-06T16:06:47.407Z,23.60
2023-03-06T16:09:14.440Z,24.88
2023-03-06T16:11:44.719Z,22.52
2023-03-06T16:14:23.596Z,24.27
2023-03-06T16:16:56.159Z,23.30
2023-03-06T16:19:27.320Z,28.38
2023-03-06T16:21:56.263Z,25.23
2023-03-06T16:24:23.588Z,26.35
2023-03-06T16:26:53.362Z,22.48
2023-03-06T16:29:24.282Z,26.75
2023-03-06T16:31:55.084Z,24.13
2023-03-06T16:34:21.893Z,23.95
2023-03-06T16:36:49.679Z,25.27
2023-03-06T16:39:19.615Z,22.42
2023-03-06T16:41:47.013Z,31.00
2023-03-06T16:44:14.142Z,28.77
2023-03-06T16:46:47.576Z,24.83
2023-03-06T16:49:21.083Z,26.73
2023-03-06T16:51:48.453Z,25.25
2023-03-06T16:54:15.524Z,24.13
2023-03-06T16:56:42.536Z,24.02
2023-03-06T16:59:09.330Z,26.13
2023-03-06T17:01:36.711Z,24.35
2023-03-06T17:04:04.050Z,25.92
2023-03-06T17:06:31.792Z,23.52
2023-03-06T17:08:59.628Z,24.88
2023-03-06T17:11:27.127Z,29.73
2023-03-06T17:13:55.381Z,29.80
2023-03-06T17:16:22.290Z,27.38
2023-03-06T17:18:49.613Z,26.20
2023-03-06T17:21:16.401Z,23.48
2023-03-06T17:23:44.280Z,26.75
2023-03-06T17:26:20.410Z,27.73
2023-03-06T17:28:48.212Z,26.63
2023-03-06T17:31:25.194Z,23.42
2023-03-06T17:33:56.476Z,27.40
2023-03-06T17:36:23.235Z,24.50
2023-03-06T17:38:49.922Z,26.15
2023-03-06T17:41:16.911Z,24.15
2023-03-06T17:43:43.698Z,26.33
2023-03-06T17:46:12.780Z,35.13
2023-03-06T17:48:40.086Z,29.30
2023-03-06T17:51:07.834Z,25.30
2023-03-06T17:53:34.863Z,27.98
2023-03-06T17:56:07.964Z,26.35
2023-03-06T17:58:35.450Z,23.80
2023-03-06T18:01:21.944Z,24.83
2023-03-06T18:03:50.675Z,25.63
2023-03-06T18:06:18.907Z,26.27
2023-03-06T18:08:46.450Z,27.05
2023-03-06T18:11:13.906Z,28.92
2023-03-06T18:13:43.248Z,26.25
2023-03-06T18:16:13.316Z,36.05
2023-03-06T18:18:40.332Z,30.70
2023-03-06T18:21:13.844Z,27.67
2023-03-06T18:23:41.031Z,28.60
2023-03-06T18:26:20.046Z,27.98
2023-03-06T18:28:51.227Z,33.63
2023-03-06T18:31:27.838Z,29.33
2023-03-06T18:33:57.845Z,29.08
2023-03-06T18:36:28.313Z,30.48
2023-03-06T18:38:55.676Z,37.40
2023-03-06T18:41:23.094Z,28.40
2023-03-06T18:43:59.032Z,27.48
2023-03-06T18:46:33.242Z,28.88
2023-03-06T18:49:00.409Z,32.53
2023-03-06T18:51:27.459Z,27.85
2023-03-06T18:54:01.509Z,28.88
2023-03-06T18:56:28.451Z,29.75
2023-03-06T18:58:55.393Z,28.63
2023-03-06T19:01:22.867Z,25.65
2023-03-06T19:03:49.744Z,27.15
2023-03-06T19:06:17.412Z,28.75
2023-03-06T19:08:44.308Z,26.13
2023-03-06T19:11:16.207Z,32.22
2023-03-06T19:13:43.495Z,23.83
2023-03-06T19:16:22.397Z,29.23
2023-03-06T19:18:49.245Z,28.67
2023-03-06T19:21:21.963Z,29.27
2023-03-06T19:23:49.057Z,28.25
2023-03-06T19:26:18.519Z,28.58
2023-03-06T19:28:46.049Z,27.63
2023-03-06T19:31:19.500Z,30.88
2023-03-06T19:33:48.873Z,25.48
2023-03-06T19:36:17.172Z,29.50
2023-03-06T19:38:44.137Z,28.58
2023-03-06T19:41:13.721Z,29.90
2023-03-06T19:43:42.395Z,29.02
2023-03-06T19:46:13.690Z,30.70
2023-03-06T19:48:41.795Z,28.42
2023-03-06T19:51:09.499Z,30.70
2023-03-06T19:53:36.578Z,27.25
2023-03-06T19:56:13.329Z,28.73
2023-03-06T19:58:40.593Z,28.95
2023-03-06T20:01:14.325Z,30.23
2023-03-06T20:03:41.183Z,27.80
2023-03-06T20:06:13.433Z,30.23
2023-03-06T20:11:06.891Z,27.20
2023-03-06T20:13:33.616Z,29.17
2023-03-06T20:16:03.316Z,30.42
2023-03-06T20:18:30.054Z,31.90
2023-03-06T20:20:58.966Z,27.45
2023-03-06T20:23:26.322Z,27.70
2023-03-06T20:25:53.418Z,30.33
2023-03-06T20:28:20.329Z,28.98
2023-03-06T20:30:47.079Z,31.27
2023-03-06T20:33:15.252Z,30.23
2023-03-06T20:35:43.337Z,29.40
2023-03-06T20:38:10.987Z,29.00
2023-03-06T20:40:40.575Z,36.20
2023-03-06T20:43:07.699Z,31.77
2023-03-06T20:45:34.957Z,33.72
2023-03-06T20:48:01.778Z,30.55
2023-03-06T20:50:31.589Z,32.38
2023-03-06T20:53:00.901Z,32.97
2023-03-06T20:55:27.621Z,32.30
2023-03-06T20:57:54.479Z,35.05
2023-03-06T21:00:21.369Z,36.55
2023-03-06T21:02:48.205Z,32.88
2023-03-06T21:05:15.268Z,39.25
2023-03-06T21:07:42.056Z,33.50
2023-03-06T21:10:09.661Z,42.45
2023-03-06T21:12:36.401Z,36.60
2023-03-06T21:15:03.586Z,39.50
2023-03-06T21:17:30.359Z,34.67
2023-03-06T21:19:58.290Z,40.70
2023-03-06T21:22:25.387Z,31.98
2023-03-06T21:24:52.106Z,34.25
2023-03-06T21:27:18.906Z,38.05
2023-03-06T21:29:46.171Z,36.70
2023-03-06T21:32:13.011Z,37.28
2023-03-06T21:34:39.751Z,35.00
2023-03-06T21:37:06.639Z,33.63
2023-03-06T21:39:34.866Z,39.75
2023-03-06T21:42:01.746Z,32.45
2023-03-06T21:44:28.527Z,34.97
2023-03-06T21:46:55.354Z,35.97
2023-03-06T21:49:25.866Z,34.60
2023-03-06T21:51:53.524Z,34.47
2023-03-06T21:54:20.974Z,35.10
2023-03-06T21:56:47.835Z,37.90
2023-03-06T21:59:14.557Z,34.83
2023-03-06T22:01:42.557Z,33.63
2023-03-06T22:04:09.421Z,31.42
2023-03-06T22:06:40.246Z,32.30
2023-03-06T22:09:07.351Z,30.95
2023-03-06T22:11:37.276Z,37.03
2023-03-06T22:14:05.449Z,32.47
2023-03-06T22:16:32.752Z,29.10
2023-03-06T22:19:00.439Z,31.00
2023-03-06T22:21:27.362Z,32.83
2023-03-06T22:23:59.746Z,29.60
2023-03-06T22:26:29.449Z,25.95
2023-03-06T22:28:56.749Z,29.38
2023-03-06T22:31:26.641Z,30.45
2023-03-06T22:33:55.057Z,31.88
2023-03-06T22:36:22.543Z,29.40
2023-03-06T22:38:52.811Z,26.67
2023-03-06T22:41:20.800Z,27.52
2023-03-06T22:43:47.744Z,22.70
2023-03-06T22:46:17.590Z,27.50
2023-03-06T22:48:45.139Z,26.40
2023-03-06T22:51:15.619Z,22.98
2023-03-06T22:53:42.982Z,23.63
2023-03-06T22:56:17.356Z,21.77
2023-03-06T22:58:44.883Z,23.10
2023-03-06T23:01:16.820Z,21.63
2023-03-06T23:03:50.311Z,24.50
2023-03-06T23:06:21.535Z,22.98
2023-03-06T23:09:07.393Z,20.23
2023-03-06T23:11:34.928Z,22.55
2023-03-06T23:14:01.833Z,19.17
2023-03-06T23:16:28.707Z,21.55
2023-03-06T23:18:55.438Z,24.17
2023-03-06T23:21:22.832Z,21.23
2023-03-06T23:23:52.021Z,21.30
2023-03-06T23:26:22.418Z,19.35
2023-03-06T23:28:49.457Z,19.73
2023-03-06T23:31:19.930Z,18.90
2023-03-06T23:33:47.210Z,22.15
2023-03-06T23:36:16.720Z,22.80
2023-03-06T23:38:47.802Z,21.63
2023-03-06T23:41:18.025Z,17.25
2023-03-06T23:43:46.295Z,16.60
2023-03-06T23:46:13.766Z,17.08
2023-03-06T23:48:41.792Z,22.40
2023-03-06T23:51:18.073Z,16.15
2023-03-06T23:53:46.666Z,18.50
2023-03-06T23:56:14.052Z,15.50
2023-03-06T23:58:41.073Z,16.10
